Terminal Aerodrome Forecast
Issued by NWS Sterling, VA

Current Version | Previous Version | Text Only | Print | Product List | Glossary Off
Versions: 1 2 3 4 5 6 7 8 9 10 11 12 13 14 15

000
FTUS41 KLWX 190300 AAA
TAFMRB
TAF AMD
KMRB 190316Z 1903/1924 25007KT P6SM FEW060
     FM191700 22007KT P6SM BKN090
     FM192000 18012KT P6SM BKN100=

USA.gov is the U.S. government's official web portal to all federal, state and local government web resources and services.